createdAt,value
2023-03-28T00:00:49.823Z,101787.03
2023-03-28T00:03:19.608Z,101774.25
2023-03-28T00:05:49.063Z,101729.31
2023-03-28T00:08:17.188Z,101787.94
2023-03-28T00:10:44.304Z,101778.94
2023-03-28T00:13:13.946Z,101798.81
2023-03-28T00:15:42.170Z,101744.09
2023-03-28T00:18:11.633Z,101773.53
2023-03-28T00:20:40.045Z,101810.47
2023-03-28T00:23:08.106Z,101811.53
2023-03-28T00:25:35.904Z,101765.47
2023-03-28T00:28:03.453Z,101808.94
2023-03-28T00:30:30.152Z,101793.19
2023-03-28T00:32:57.557Z,101780.66
2023-03-28T00:35:24.595Z,101753.63
2023-03-28T00:37:53.700Z,101783.81
2023-03-28T00:40:20.192Z,101775.56
2023-03-28T00:42:46.706Z,101786.53
2023-03-28T00:45:13.610Z,101780.75
2023-03-28T00:47:46.371Z,101809.13
2023-03-28T00:50:20.826Z,101809.88
2023-03-28T00:52:52.811Z,101808.06
2023-03-28T00:55:24.279Z,101809.56
2023-03-28T00:57:52.971Z,101817.84
2023-03-28T01:00:21.048Z,101813.34
2023-03-28T01:02:52.459Z,101809.09
2023-03-28T01:05:28.240Z,101797.88
2023-03-28T01:07:59.291Z,101762.88
2023-03-28T01:10:26.737Z,101784.31
2023-03-28T01:12:54.823Z,101798.22
2023-03-28T01:15:21.647Z,101779.81
2023-03-28T01:17:50.576Z,101800.09
2023-03-28T01:20:26.687Z,101776.03
2023-03-28T01:23:04.508Z,101797.03
2023-03-28T01:25:42.321Z,101807.66
2023-03-28T01:28:32.571Z,101804.81
2023-03-28T01:31:13.596Z,101802.66
2023-03-28T01:33:47.623Z,101806.88
2023-03-28T01:36:35.732Z,101815.44
2023-03-28T01:39:34.937Z,101814.81
2023-03-28T01:42:28.242Z,101807.69
2023-03-28T01:45:15.008Z,101801.50
2023-03-28T01:47:44.017Z,101802.13
2023-03-28T01:50:29.678Z,101809.34
2023-03-28T01:53:21.632Z,101814.19
2023-03-28T01:55:57.200Z,101816.94
2023-03-28T01:58:33.058Z,101783.16
2023-03-28T02:01:08.013Z,101803.09
2023-03-28T02:03:40.727Z,101816.09
2023-03-28T02:06:08.994Z,101817.22
2023-03-28T02:08:37.986Z,101812.59
2023-03-28T02:11:04.873Z,101787.38
2023-03-28T02:13:37.713Z,101804.84
2023-03-28T02:16:05.095Z,101814.91
2023-03-28T02:18:34.819Z,101812.69
2023-03-28T02:21:13.076Z,101787.16
2023-03-28T02:23:42.750Z,101805.97
2023-03-28T02:26:09.736Z,101786.44
2023-03-28T02:28:37.168Z,101794.91
2023-03-28T02:31:05.175Z,101802.03
2023-03-28T02:33:46.156Z,101736.06
2023-03-28T02:36:46.938Z,101792.25
2023-03-28T02:39:20.865Z,101765.13
2023-03-28T02:42:19.896Z,101784.78
2023-03-28T02:45:18.664Z,101785.69
2023-03-28T02:48:01.080Z,101790.25
2023-03-28T02:50:48.803Z,101780.63
2023-03-28T02:53:27.044Z,101788.47
2023-03-28T02:56:12.833Z,101760.09
2023-03-28T02:58:46.337Z,101782.34
2023-03-28T03:01:14.596Z,101751.75
2023-03-28T03:03:42.397Z,101750.06
2023-03-28T03:06:09.832Z,101782.16
2023-03-28T03:08:36.414Z,101770.84
2023-03-28T03:11:03.034Z,101768.22
2023-03-28T03:13:29.854Z,101787.84
2023-03-28T03:15:56.651Z,101756.03
2023-03-28T03:18:23.778Z,101778.03
2023-03-28T03:20:50.345Z,101758.44
2023-03-28T03:23:17.291Z,101756.38
2023-03-28T03:25:45.085Z,101771.53
2023-03-28T03:28:13.097Z,101783.72
2023-03-28T03:30:39.798Z,101764.78
2023-03-28T03:33:10.183Z,101722.97
2023-03-28T03:35:37.719Z,101771.56
2023-03-28T03:38:04.481Z,101782.81
2023-03-28T03:40:31.039Z,101746.38
2023-03-28T03:42:57.680Z,101724.09
2023-03-28T03:45:24.279Z,101789.44
2023-03-28T03:47:50.765Z,101789.69
2023-03-28T03:50:17.464Z,101775.22
2023-03-28T03:52:44.205Z,101756.00
2023-03-28T03:55:11.600Z,101791.28
2023-03-28T03:57:38.143Z,101773.19
2023-03-28T04:00:11.678Z,101748.97
2023-03-28T04:02:39.364Z,101770.63
2023-03-28T04:05:08.555Z,101795.88
2023-03-28T04:07:35.715Z,101774.53
2023-03-28T04:10:02.658Z,101767.78
2023-03-28T04:12:29.274Z,101747.44
2023-03-28T04:14:56.260Z,101780.91
2023-03-28T04:17:23.537Z,101794.03
2023-03-28T04:19:50.454Z,101820.03
2023-03-28T04:22:18.317Z,101804.38
2023-03-28T04:24:45.827Z,101812.25
2023-03-28T04:27:12.373Z,101809.97
2023-03-28T04:29:41.676Z,101821.66
2023-03-28T04:32:11.098Z,101820.34
2023-03-28T04:34:39.074Z,101775.06
2023-03-28T04:37:05.972Z,101824.97
2023-03-28T04:39:37.002Z,101802.78
2023-03-28T04:42:05.612Z,101821.41
2023-03-28T04:44:32.634Z,101814.47
2023-03-28T04:46:59.648Z,101832.25
2023-03-28T04:49:26.760Z,101813.72
2023-03-28T04:51:53.486Z,101824.66
2023-03-28T04:54:20.379Z,101797.78
2023-03-28T04:56:50.339Z,101819.97
2023-03-28T04:59:17.620Z,101854.19
2023-03-28T05:01:49.351Z,101851.47
2023-03-28T05:04:19.904Z,101843.09
2023-03-28T05:06:47.015Z,101851.50
2023-03-28T05:09:14.335Z,101850.22
2023-03-28T05:11:41.231Z,101853.06
2023-03-28T05:14:08.117Z,101864.72
2023-03-28T05:16:34.675Z,101851.78
2023-03-28T05:19:01.613Z,101865.88
2023-03-28T05:21:29.018Z,101867.91
2023-03-28T05:23:56.217Z,101846.66
2023-03-28T05:26:22.947Z,101874.00
2023-03-28T05:28:49.668Z,101869.75
2023-03-28T05:31:17.268Z,101840.63
2023-03-28T05:33:44.297Z,101862.31
2023-03-28T05:36:12.849Z,101874.72
2023-03-28T05:38:39.535Z,101863.38
2023-03-28T05:41:06.367Z,101852.59
2023-03-28T05:43:32.921Z,101864.59
2023-03-28T05:45:59.590Z,101874.53
2023-03-28T05:48:26.140Z,101888.75
2023-03-28T05:50:52.749Z,101882.88
2023-03-28T05:53:19.262Z,101862.94
2023-03-28T05:55:45.869Z,101892.72
2023-03-28T05:58:13.631Z,101859.03
2023-03-28T06:00:41.929Z,101861.38
2023-03-28T06:03:09.510Z,101879.97
2023-03-28T06:05:43.178Z,101886.56
2023-03-28T06:08:10.016Z,101875.84
2023-03-28T06:10:36.870Z,101880.84
2023-03-28T06:13:03.417Z,101887.59
2023-03-28T06:15:29.961Z,101868.44
2023-03-28T06:17:57.875Z,101858.72
2023-03-28T06:20:24.474Z,101869.25
2023-03-28T06:22:51.037Z,101864.94
2023-03-28T06:25:17.971Z,101896.06
2023-03-28T06:27:44.460Z,101870.22
2023-03-28T06:30:11.619Z,101900.50
2023-03-28T06:32:38.496Z,101866.50
2023-03-28T06:35:05.656Z,101910.00
2023-03-28T06:37:32.473Z,101882.84
2023-03-28T06:39:59.419Z,101906.25
2023-03-28T06:42:27.204Z,101874.41
2023-03-28T06:44:53.771Z,101875.84
2023-03-28T06:47:20.704Z,101919.22
2023-03-28T06:49:47.241Z,101891.81
2023-03-28T06:52:13.770Z,101917.72
2023-03-28T06:54:40.649Z,101917.47
2023-03-28T06:57:07.363Z,101893.00
2023-03-28T06:59:34.439Z,101924.22
2023-03-28T07:02:01.080Z,101917.63
2023-03-28T07:04:27.784Z,101885.78
2023-03-28T07:06:54.279Z,101854.19
2023-03-28T07:09:21.229Z,101907.13
2023-03-28T07:11:55.427Z,101906.97
2023-03-28T07:14:22.405Z,101924.03
2023-03-28T07:16:59.117Z,101919.63
2023-03-28T07:19:25.962Z,101894.28
2023-03-28T07:21:53.153Z,101911.53
2023-03-28T07:24:19.798Z,101899.69
2023-03-28T07:26:46.415Z,101902.53
2023-03-28T07:29:13.649Z,101925.59
2023-03-28T07:31:40.308Z,101904.47
2023-03-28T07:34:06.937Z,101928.84
2023-03-28T07:36:33.551Z,101919.25
2023-03-28T07:39:00.026Z,101933.34
2023-03-28T07:41:26.573Z,101923.25
2023-03-28T07:43:53.028Z,101899.19
2023-03-28T07:46:20.957Z,101942.47
2023-03-28T07:48:47.723Z,101938.84
2023-03-28T07:51:15.133Z,101930.69
2023-03-28T07:53:41.910Z,101918.06
2023-03-28T07:56:10.561Z,101938.38
2023-03-28T07:58:38.878Z,101926.44
2023-03-28T08:01:10.972Z,101945.78
2023-03-28T08:03:37.705Z,101915.28
2023-03-28T08:06:11.312Z,101944.88
2023-03-28T08:08:47.025Z,101926.81
2023-03-28T08:11:13.555Z,101916.66
2023-03-28T08:13:40.267Z,101913.09
2023-03-28T08:16:07.364Z,101937.00
2023-03-28T08:18:33.976Z,101909.03
2023-03-28T08:21:02.512Z,101946.94
2023-03-28T08:23:29.747Z,101927.81
2023-03-28T08:26:04.813Z,101945.13
2023-03-28T08:28:35.765Z,101941.75
2023-03-28T08:31:09.154Z,101931.09
2023-03-28T08:33:35.827Z,101915.75
2023-03-28T08:36:02.498Z,101876.84
2023-03-28T08:38:29.173Z,101909.75
2023-03-28T08:41:02.451Z,101948.78
2023-03-28T08:43:49.449Z,101933.03
2023-03-28T08:47:04.609Z,101921.59
2023-03-28T08:49:35.987Z,101929.91
2023-03-28T08:52:03.194Z,101928.38
2023-03-28T08:54:41.436Z,101935.81
2023-03-28T08:57:17.470Z,101935.59
2023-03-28T09:00:14.944Z,101917.66
2023-03-28T09:02:42.799Z,101911.06
2023-03-28T09:05:23.727Z,101924.84
2023-03-28T09:08:04.305Z,101913.94
2023-03-28T09:10:45.006Z,101902.56
2023-03-28T09:13:30.370Z,101937.66
2023-03-28T09:16:27.330Z,101947.47
2023-03-28T09:19:21.852Z,101940.31
2023-03-28T09:22:15.732Z,101942.47
2023-03-28T09:25:00.153Z,101940.78
2023-03-28T09:27:37.747Z,101895.63
2023-03-28T09:30:17.771Z,101915.78
2023-03-28T09:32:45.022Z,101908.75
2023-03-28T09:35:17.442Z,101913.41
2023-03-28T09:37:48.760Z,101889.41
2023-03-28T09:40:28.616Z,101924.31
2023-03-28T09:43:19.780Z,101925.63
2023-03-28T09:46:22.192Z,101908.63
2023-03-28T09:48:49.111Z,101865.00
2023-03-28T09:51:17.553Z,101902.47
2023-03-28T09:53:44.040Z,101899.13
2023-03-28T09:56:19.897Z,101906.94
2023-03-28T09:58:52.995Z,101905.19
2023-03-28T10:01:38.986Z,101887.34
2023-03-28T10:04:19.994Z,101911.88
2023-03-28T10:06:48.133Z,101906.06
2023-03-28T10:09:31.544Z,101859.19
2023-03-28T10:11:59.755Z,101887.91
2023-03-28T10:14:40.716Z,101899.38
2023-03-28T10:17:25.977Z,101890.53
2023-03-28T10:19:53.901Z,101906.00
2023-03-28T10:22:26.093Z,101900.91
2023-03-28T10:24:53.176Z,101888.13
2023-03-28T10:27:25.849Z,101907.13
2023-03-28T10:29:54.642Z,101879.28
2023-03-28T10:32:29.563Z,101902.09
2023-03-28T10:35:25.056Z,101891.94
2023-03-28T10:37:56.251Z,101867.34
2023-03-28T10:40:27.985Z,101874.16
2023-03-28T10:42:56.549Z,101853.69
2023-03-28T10:45:24.451Z,101880.00
2023-03-28T10:47:53.375Z,101749.91
2023-03-28T10:50:25.485Z,101892.34
2023-03-28T10:53:38.670Z,101869.97
2023-03-28T10:56:34.506Z,101880.69
2023-03-28T10:59:19.800Z,101878.28
2023-03-28T11:01:58.672Z,101879.56
2023-03-28T11:04:34.258Z,101877.16
2023-03-28T11:07:04.468Z,101849.41
2023-03-28T11:09:59.798Z,101861.09
2023-03-28T11:12:43.725Z,101856.28
2023-03-28T11:15:24.566Z,101863.78
2023-03-28T11:18:09.727Z,101861.44
2023-03-28T11:21:01.317Z,101795.03
2023-03-28T11:23:48.989Z,101844.78
2023-03-28T11:26:20.734Z,101850.28
2023-03-28T11:28:50.477Z,101840.56
2023-03-28T11:31:33.448Z,101832.84
2023-03-28T11:34:05.103Z,101822.97
2023-03-28T11:36:51.335Z,101819.53
2023-03-28T11:39:26.760Z,101782.41
2023-03-28T11:41:53.908Z,101821.16
2023-03-28T11:44:28.320Z,101788.66
2023-03-28T11:47:12.320Z,101806.44
2023-03-28T11:49:47.882Z,101801.16
2023-03-28T11:52:25.901Z,101779.25
2023-03-28T11:55:04.555Z,101802.19
2023-03-28T11:57:57.761Z,101788.38
2023-03-28T12:00:34.266Z,101690.03
2023-03-28T12:03:13.403Z,101780.28
2023-03-28T12:05:46.885Z,101776.19
2023-03-28T12:08:23.650Z,101763.28
2023-03-28T12:10:52.913Z,101754.56
2023-03-28T12:13:25.577Z,101747.50
2023-03-28T12:15:58.887Z,101718.19
2023-03-28T12:18:36.850Z,101743.75
2023-03-28T12:21:12.004Z,101711.38
2023-03-28T12:24:00.273Z,101724.44
2023-03-28T12:27:00.974Z,101734.22
2023-03-28T12:29:44.144Z,101706.53
2023-03-28T12:32:14.065Z,101732.22
2023-03-28T12:34:45.945Z,101711.59
2023-03-28T12:37:14.773Z,101728.91
2023-03-28T12:39:44.598Z,101728.25
2023-03-28T12:42:13.274Z,101720.56
2023-03-28T12:44:44.258Z,101717.88
2023-03-28T12:47:17.218Z,101711.44
2023-03-28T12:49:46.899Z,101697.72
2023-03-28T12:52:24.431Z,101690.66
2023-03-28T12:55:03.365Z,101691.78
2023-03-28T12:57:45.588Z,101703.63
2023-03-28T13:00:23.749Z,101672.16
2023-03-28T13:02:59.364Z,101704.91
2023-03-28T13:05:38.903Z,101681.28
2023-03-28T13:08:31.833Z,101695.84
2023-03-28T13:11:23.396Z,101682.34
2023-03-28T13:13:58.088Z,101692.31
2023-03-28T13:16:42.723Z,101691.16
2023-03-28T13:19:11.473Z,101693.75
2023-03-28T13:21:47.815Z,101663.59
2023-03-28T13:24:26.704Z,101671.69
2023-03-28T13:26:54.648Z,101640.81
2023-03-28T13:29:21.266Z,101628.97
2023-03-28T13:31:48.032Z,101658.63
2023-03-28T13:34:23.105Z,101656.72
2023-03-28T13:36:54.084Z,101620.16
2023-03-28T13:39:22.317Z,101645.06
2023-03-28T13:41:48.847Z,101633.38
2023-03-28T13:44:19.156Z,101625.50
2023-03-28T13:46:48.037Z,101624.94
2023-03-28T13:49:19.348Z,101619.22
2023-03-28T13:51:46.318Z,101615.72
2023-03-28T13:54:12.855Z,101576.47
2023-03-28T13:56:43.553Z,101601.25
2023-03-28T13:59:16.652Z,101545.03
2023-03-28T14:02:15.768Z,101587.88
2023-03-28T14:04:53.638Z,101575.16
2023-03-28T14:07:28.241Z,101568.34
2023-03-28T14:09:56.628Z,101565.47
2023-03-28T14:12:25.225Z,101562.00
2023-03-28T14:14:54.238Z,101574.72
2023-03-28T14:17:23.698Z,101540.97
2023-03-28T14:19:56.785Z,101575.88
2023-03-28T14:22:28.859Z,101572.25
2023-03-28T14:24:59.364Z,101552.31
2023-03-28T14:27:48.105Z,101555.31
2023-03-28T14:30:32.427Z,101540.19
2023-03-28T14:33:02.319Z,101553.13
2023-03-28T14:35:30.967Z,101525.81
2023-03-28T14:38:03.668Z,101527.56
2023-03-28T14:40:37.217Z,101548.88
2023-03-28T14:43:20.607Z,101508.38
2023-03-28T14:45:50.385Z,101494.22
2023-03-28T14:48:27.304Z,101525.41
2023-03-28T14:50:54.642Z,101496.19
2023-03-28T14:53:27.329Z,101517.66
2023-03-28T14:55:58.159Z,101499.31
2023-03-28T14:58:27.384Z,101506.31
2023-03-28T15:00:58.249Z,101474.16
2023-03-28T15:03:35.398Z,101518.78
2023-03-28T15:06:02.506Z,101483.59
2023-03-28T15:08:34.275Z,101501.22
2023-03-28T15:11:11.662Z,101499.41
2023-03-28T15:13:39.977Z,101476.41
2023-03-28T15:16:08.217Z,101490.81
2023-03-28T15:18:48.923Z,101478.13
2023-03-28T15:21:15.699Z,101461.41
2023-03-28T15:23:49.052Z,101469.16
2023-03-28T15:26:28.934Z,101428.09
2023-03-28T15:28:56.737Z,101463.53
2023-03-28T15:31:24.591Z,101441.38
2023-03-28T15:33:52.802Z,101423.22
2023-03-28T15:36:25.022Z,101444.53
2023-03-28T15:38:59.588Z,101397.06
2023-03-28T15:41:33.324Z,101430.56
2023-03-28T15:44:10.481Z,101415.88
2023-03-28T15:46:37.172Z,101379.69
2023-03-28T15:49:05.357Z,101418.84
2023-03-28T15:51:42.210Z,101408.38
2023-03-28T15:54:23.832Z,101365.09
2023-03-28T15:56:56.520Z,101369.22
2023-03-28T15:59:39.387Z,101378.94
2023-03-28T16:02:24.180Z,101402.06
2023-03-28T16:04:56.908Z,101401.28
2023-03-28T16:07:23.505Z,101396.13
2023-03-28T16:09:51.409Z,101365.75
2023-03-28T16:12:19.121Z,101369.03
2023-03-28T16:14:48.834Z,101393.00
2023-03-28T16:17:15.627Z,101386.97
2023-03-28T16:19:43.811Z,101362.72
2023-03-28T16:22:10.598Z,101367.16
2023-03-28T16:24:37.121Z,101382.22
2023-03-28T16:27:03.822Z,101376.47
2023-03-28T16:29:31.660Z,101385.25
2023-03-28T16:31:58.191Z,101388.22
2023-03-28T16:34:24.971Z,101364.69
2023-03-28T16:36:51.714Z,101387.59
2023-03-28T16:39:18.594Z,101381.78
2023-03-28T16:41:45.520Z,101356.63
2023-03-28T16:44:12.046Z,101344.66
2023-03-28T16:46:38.668Z,101321.72
2023-03-28T16:49:05.243Z,101368.78
2023-03-28T16:51:31.852Z,101361.41
2023-03-28T16:53:58.575Z,101360.69
2023-03-28T16:56:27.218Z,101365.84
2023-03-28T16:58:54.557Z,101368.19
2023-03-28T17:01:21.146Z,101365.69
2023-03-28T17:03:49.616Z,101354.63
2023-03-28T17:06:16.730Z,101353.75
2023-03-28T17:08:44.202Z,101355.47
2023-03-28T17:11:12.206Z,101352.94
2023-03-28T17:13:39.983Z,101340.56
2023-03-28T17:16:08.669Z,101345.31
2023-03-28T17:18:35.949Z,101336.63
2023-03-28T17:21:07.965Z,101344.81
2023-03-28T17:23:35.300Z,101335.09
2023-03-28T17:26:02.259Z,101329.22
2023-03-28T17:28:29.711Z,101338.78
2023-03-28T17:30:56.851Z,101288.09
2023-03-28T17:33:23.649Z,101329.88
2023-03-28T17:35:50.763Z,101318.13
2023-03-28T17:38:17.286Z,101295.69
2023-03-28T17:40:47.863Z,101333.84
2023-03-28T17:43:14.662Z,101326.78
2023-03-28T17:45:41.423Z,101318.81
2023-03-28T17:48:08.315Z,101312.13
2023-03-28T17:50:34.922Z,101322.41
2023-03-28T17:53:01.456Z,101330.75
2023-03-28T17:55:28.655Z,101300.66
2023-03-28T17:57:55.706Z,101330.00
2023-03-28T18:00:22.320Z,101317.13
2023-03-28T18:02:50.782Z,101307.84
2023-03-28T18:05:18.114Z,101327.19
2023-03-28T18:07:44.819Z,101313.16
2023-03-28T18:10:11.996Z,101331.31
2023-03-28T18:12:38.551Z,101299.06
2023-03-28T18:15:06.502Z,101326.19
2023-03-28T18:17:33.091Z,101292.69
2023-03-28T18:19:59.834Z,101294.19
2023-03-28T18:22:26.989Z,101288.50
2023-03-28T18:24:54.373Z,101295.00
2023-03-28T18:27:21.721Z,101293.97
2023-03-28T18:29:49.352Z,101311.16
2023-03-28T18:32:16.447Z,101267.25
2023-03-28T18:34:43.589Z,101285.91
2023-03-28T18:37:11.838Z,101278.06
2023-03-28T18:39:41.526Z,101298.19
2023-03-28T18:42:08.645Z,101290.97
2023-03-28T18:44:37.143Z,101259.84
2023-03-28T18:47:05.224Z,101295.47
2023-03-28T18:49:32.026Z,101258.44
2023-03-28T18:52:04.842Z,101283.47
2023-03-28T18:54:32.565Z,101235.91
2023-03-28T18:56:59.471Z,101282.75
2023-03-28T18:59:26.975Z,101275.66
2023-03-28T19:01:53.892Z,101210.53
2023-03-28T19:04:23.121Z,101264.34
2023-03-28T19:06:50.369Z,101252.53
2023-03-28T19:09:16.974Z,101252.38
2023-03-28T19:11:43.690Z,101264.81
2023-03-28T19:14:10.424Z,101243.25
2023-03-28T19:16:37.258Z,101264.16
2023-03-28T19:19:04.021Z,101241.81
2023-03-28T19:21:30.689Z,101262.47
2023-03-28T19:23:57.417Z,101251.44
2023-03-28T19:26:23.925Z,101217.34
2023-03-28T19:28:51.334Z,101243.34
2023-03-28T19:31:18.147Z,101240.69
2023-03-28T19:33:45.263Z,101235.69
2023-03-28T19:36:11.928Z,101243.00
2023-03-28T19:38:39.223Z,101242.44
2023-03-28T19:41:10.410Z,101231.88
2023-03-28T19:43:37.817Z,101226.00
2023-03-28T19:46:06.288Z,101241.34
2023-03-28T19:48:33.280Z,101236.59
2023-03-28T19:50:59.761Z,101239.72
2023-03-28T19:53:27.133Z,101241.97
2023-03-28T19:55:54.873Z,101236.09
2023-03-28T19:58:23.239Z,101212.34
2023-03-28T20:00:50.055Z,101205.00
2023-03-28T20:03:17.245Z,101228.34
2023-03-28T20:05:45.812Z,101233.06
2023-03-28T20:08:12.523Z,101232.91
2023-03-28T20:10:43.537Z,101236.06
2023-03-28T20:13:10.877Z,101247.34
2023-03-28T20:15:38.593Z,101213.34
2023-03-28T20:18:05.682Z,101258.09
2023-03-28T20:24:31.546Z,101261.81
2023-03-28T20:26:58.502Z,101266.94
2023-03-28T20:29:25.385Z,101238.72
2023-03-28T20:31:52.630Z,101243.28
2023-03-28T20:34:19.154Z,101233.25
2023-03-28T20:36:46.419Z,101215.91
2023-03-28T20:39:14.180Z,101264.00
2023-03-28T20:41:40.889Z,101253.41
2023-03-28T20:44:08.622Z,101236.72
2023-03-28T20:46:38.651Z,101226.59
2023-03-28T20:49:06.216Z,101266.13
2023-03-28T20:51:33.016Z,101246.22
2023-03-28T20:54:00.769Z,101237.28
2023-03-28T20:56:29.661Z,101250.41
2023-03-28T20:58:58.111Z,101241.88
2023-03-28T21:01:29.947Z,101239.34
2023-03-28T21:03:59.746Z,101224.94
2023-03-28T21:06:33.252Z,101220.22
2023-03-28T21:09:04.473Z,101245.88
2023-03-28T21:11:33.090Z,101251.69
2023-03-28T21:14:00.310Z,101250.47
2023-03-28T21:16:28.135Z,101218.56
2023-03-28T21:18:54.702Z,101233.59
2023-03-28T21:21:21.919Z,101251.78
2023-03-28T21:23:49.200Z,101259.75
2023-03-28T21:26:18.156Z,101259.16
2023-03-28T21:28:45.786Z,101248.00
2023-03-28T21:31:14.365Z,101261.19
2023-03-28T21:33:42.778Z,101255.16
2023-03-28T21:36:11.642Z,101220.88
2023-03-28T21:38:39.058Z,101241.84
2023-03-28T21:41:07.430Z,101234.00
2023-03-28T21:43:34.651Z,101235.94
2023-03-28T21:46:02.143Z,101231.81
2023-03-28T21:48:29.404Z,101241.38
2023-03-28T21:51:00.592Z,101237.66
2023-03-28T21:53:36.190Z,101241.03
2023-03-28T21:56:04.078Z,101236.94
2023-03-28T21:58:32.739Z,101236.78
2023-03-28T22:01:01.397Z,101230.66
2023-03-28T22:03:28.696Z,101237.81
2023-03-28T22:05:55.616Z,101218.41
2023-03-28T22:08:22.906Z,101221.28
2023-03-28T22:10:52.606Z,101192.78
2023-03-28T22:13:19.995Z,101191.00
2023-03-28T22:15:47.214Z,101192.25
2023-03-28T22:18:15.744Z,101214.59
2023-03-28T22:20:43.603Z,101199.75
2023-03-28T22:23:10.529Z,101201.88
2023-03-28T22:25:38.275Z,101202.69
2023-03-28T22:28:09.877Z,101102.72
2023-03-28T22:30:40.090Z,101203.47
2023-03-28T22:33:09.610Z,101203.41
2023-03-28T22:35:36.494Z,101171.09
2023-03-28T22:38:03.978Z,101202.56
2023-03-28T22:40:31.698Z,101201.25
2023-03-28T22:42:58.324Z,101201.63
2023-03-28T22:45:27.272Z,101183.53
2023-03-28T22:47:54.563Z,101204.22
2023-03-28T22:50:22.427Z,101024.03
2023-03-28T22:52:52.863Z,101170.31
2023-03-28T22:55:22.137Z,101186.25
2023-03-28T22:57:51.598Z,101182.16
2023-03-28T23:00:18.822Z,101131.50
2023-03-28T23:02:47.589Z,101141.97
2023-03-28T23:05:14.360Z,101168.22
2023-03-28T23:07:44.752Z,101152.59
2023-03-28T23:10:19.165Z,101169.97
2023-03-28T23:12:47.277Z,101167.25
2023-03-28T23:15:14.056Z,101143.19
2023-03-28T23:17:40.904Z,101130.56
2023-03-28T23:20:12.361Z,101163.63
2023-03-28T23:22:43.522Z,101157.00
2023-03-28T23:25:12.378Z,101148.97
2023-03-28T23:27:39.420Z,101126.84
2023-03-28T23:30:06.812Z,101139.72
2023-03-28T23:32:33.397Z,101096.38
2023-03-28T23:35:00.116Z,101126.69
2023-03-28T23:37:27.495Z,101116.38
2023-03-28T23:39:54.834Z,101069.25
2023-03-28T23:42:21.784Z,101102.44
2023-03-28T23:44:48.312Z,101068.97
2023-03-28T23:47:15.343Z,101099.19
2023-03-28T23:49:42.532Z,101082.91
2023-03-28T23:52:09.918Z,101070.69
2023-03-28T23:54:36.467Z,101049.59
2023-03-28T23:57:03.612Z,101060.88
2023-03-28T23:59:30.183Z,101040.81
